Time;durP1;ratioP1;P1;durP2;ratioP2;P2;SDS_P1;SDS_P2;PMS_P1;PMS_P2;Temp;Humidity;BMP_temperature;BMP_pressure;BME280_temperature;BME280_humidity;BME280_pressure;Samples;Min_cycle;Max_cycle;Signal;HPM_P1;HPM_P2
2021/06/10 00:02:16;;;;;;;7.68;2.25;;;;;;;;;;4989921;28;20031;-68
2021/06/10 00:04:42;;;;;;;7.63;2.17;;;;;;;;;;4986255;28;20030;-67
2021/06/10 00:07:08;;;;;;;7.07;2.85;;;;;;;;;;4987878;28;20030;-67
2021/06/10 00:09:34;;;;;;;6.18;2.45;;;;;;;;;;4985649;28;20096;-67
2021/06/10 00:12:00;;;;;;;9.38;2.60;;;;;;;;;;4990277;28;20031;-67
2021/06/10 00:14:26;;;;;;;5.03;2.28;;;;;;;;;;4990910;28;20038;-67
2021/06/10 00:16:52;;;;;;;7.60;2.17;;;;;;;;;;4979151;28;20041;-67
2021/06/10 00:19:19;;;;;;;7.72;2.78;;;;;;;;;;4982631;28;20027;-67
2021/06/10 00:21:46;;;;;;;13.57;3.05;;;;;;;;;;4990849;28;20038;-67
2021/06/10 00:24:12;;;;;;;4.35;2.20;;;;;;;;;;4986157;28;20023;-67
2021/06/10 00:26:38;;;;;;;10.40;2.92;;;;;;;;;;5015836;28;20029;-67
2021/06/10 00:29:04;;;;;;;8.40;3.10;;;;;;;;;;4990354;28;20113;-67
2021/06/10 00:31:31;;;;;;;7.43;2.92;;;;;;;;;;4990900;28;20118;-67
2021/06/10 00:33:57;;;;;;;7.45;2.80;;;;;;;;;;4989084;28;20018;-67
2021/06/10 00:36:23;;;;;;;7.18;2.95;;;;;;;;;;4989449;28;20030;-67
2021/06/10 00:38:50;;;;;;;6.15;2.90;;;;;;;;;;4989578;28;20058;-67
2021/06/10 00:41:16;;;;;;;8.35;2.63;;;;;;;;;;4990498;28;20501;-67
2021/06/10 00:43:42;;;;;;;6.95;2.90;;;;;;;;;;4994345;28;20022;-67
2021/06/10 00:46:09;;;;;;;8.88;3.30;;;;;;;;;;4994079;28;20477;-67
2021/06/10 00:48:35;;;;;;;8.15;2.92;;;;;;;;;;4989342;28;20038;-67
2021/06/10 00:51:01;;;;;;;8.65;3.70;;;;;;;;;;4992920;28;20079;-67
2021/06/10 00:53:27;;;;;;;9.02;4.18;;;;;;;;;;4989959;28;20026;-67
2021/06/10 00:55:56;;;;;;;10.07;4.13;;;;;;;;;;4987716;28;20023;-67
2021/06/10 00:58:22;;;;;;;9.40;4.18;;;;;;;;;;4975834;28;20034;-67
2021/06/10 01:00:48;;;;;;;11.98;5.00;;;;;;;;;;4988642;28;20053;-67
2021/06/10 01:03:14;;;;;;;10.75;4.55;;;;;;;;;;4987909;28;20076;-67
2021/06/10 01:05:41;;;;;;;14.77;4.88;;;;;;;;;;4987233;28;20068;-68
2021/06/10 01:08:07;;;;;;;15.32;5.53;;;;;;;;;;4989167;28;20106;-68
2021/06/10 01:10:40;;;;;;;13.45;6.10;;;;;;;;;;4986673;28;20447;-68
2021/06/10 01:13:14;;;;;;;10.98;5.53;;;;;;;;;;4988661;28;20225;-67
2021/06/10 01:15:42;;;;;;;14.93;6.35;;;;;;;;;;4986876;28;20037;-67
2021/06/10 01:18:09;;;;;;;11.30;5.60;;;;;;;;;;4984131;28;20030;-68
2021/06/10 01:20:36;;;;;;;14.50;6.55;;;;;;;;;;4989103;28;20569;-68
2021/06/10 01:23:09;;;;;;;11.32;5.95;;;;;;;;;;4983965;28;20022;-68
2021/06/10 01:25:37;;;;;;;9.77;5.30;;;;;;;;;;4986011;28;20041;-68
2021/06/10 01:28:07;;;;;;;12.65;6.93;;;;;;;;;;4985914;28;20102;-68
2021/06/10 01:30:36;;;;;;;15.55;6.30;;;;;;;;;;4988592;28;20027;-68
2021/06/10 01:33:10;;;;;;;14.02;6.47;;;;;;;;;;4988458;28;20038;-68
2021/06/10 01:35:38;;;;;;;10.90;5.53;;;;;;;;;;4989554;28;20026;-67
2021/06/10 01:38:06;;;;;;;14.65;5.57;;;;;;;;;;4987615;28;20446;-67
2021/06/10 01:40:32;;;;;;;12.57;6.30;;;;;;;;;;4989633;28;20022;-67
2021/06/10 01:42:58;;;;;;;13.68;6.30;;;;;;;;;;4989108;28;20014;-67
2021/06/10 01:45:25;;;;;;;15.35;6.68;;;;;;;;;;4985767;28;20031;-68
2021/06/10 01:47:52;;;;;;;15.20;6.45;;;;;;;;;;4988042;28;20030;-67
2021/06/10 01:50:20;;;;;;;10.85;6.50;;;;;;;;;;4989677;28;20525;-67
2021/06/10 01:52:46;;;;;;;14.90;6.10;;;;;;;;;;4984201;28;20023;-67
2021/06/10 01:55:14;;;;;;;15.02;7.68;;;;;;;;;;4989309;28;20035;-67
2021/06/10 01:57:41;;;;;;;16.38;8.73;;;;;;;;;;4989605;28;20038;-67
2021/06/10 02:00:09;;;;;;;12.90;6.70;;;;;;;;;;4988473;28;20110;-67
2021/06/10 02:02:36;;;;;;;16.60;7.97;;;;;;;;;;4993387;28;20114;-67
2021/06/10 02:05:03;;;;;;;14.95;7.80;;;;;;;;;;4995306;28;20027;-67
2021/06/10 02:07:30;;;;;;;16.30;7.95;;;;;;;;;;4986326;28;20438;-67
2021/06/10 02:09:56;;;;;;;13.88;7.38;;;;;;;;;;4988898;28;20030;-67
2021/06/10 02:12:22;;;;;;;12.60;7.43;;;;;;;;;;4987055;28;20030;-67
2021/06/10 02:14:48;;;;;;;11.98;6.15;;;;;;;;;;5021522;28;20034;-67
2021/06/10 02:17:16;;;;;;;16.45;7.28;;;;;;;;;;4987469;28;20042;-67
2021/06/10 02:19:42;;;;;;;14.32;7.13;;;;;;;;;;4988756;28;20031;-67
2021/06/10 02:22:08;;;;;;;14.20;7.18;;;;;;;;;;4989806;28;20083;-67
2021/06/10 02:24:35;;;;;;;15.38;8.07;;;;;;;;;;4977704;28;20030;-67
2021/06/10 02:27:01;;;;;;;16.52;8.15;;;;;;;;;;4980079;28;20038;-67
2021/06/10 02:29:27;;;;;;;19.10;9.82;;;;;;;;;;4988403;28;20080;-67
2021/06/10 02:31:53;;;;;;;17.52;8.98;;;;;;;;;;4988630;28;20513;-67
2021/06/10 02:34:19;;;;;;;14.52;8.48;;;;;;;;;;4988573;28;20409;-67
2021/06/10 02:36:46;;;;;;;14.68;8.90;;;;;;;;;;4985511;28;20113;-67
2021/06/10 02:39:14;;;;;;;17.38;8.55;;;;;;;;;;4987289;28;20509;-67
2021/06/10 02:41:44;;;;;;;15.65;9.23;;;;;;;;;;4988884;28;20040;-67
2021/06/10 02:44:10;;;;;;;13.50;7.75;;;;;;;;;;4988283;28;20046;-67
2021/06/10 02:46:36;;;;;;;15.23;8.60;;;;;;;;;;4985613;28;20031;-67
2021/06/10 02:49:03;;;;;;;16.63;8.48;;;;;;;;;;4988435;28;20022;-67
2021/06/10 02:51:31;;;;;;;15.82;9.07;;;;;;;;;;4981268;28;20018;-67
2021/06/10 02:53:57;;;;;;;17.75;9.20;;;;;;;;;;4987626;28;20026;-67
2021/06/10 02:56:24;;;;;;;15.70;8.52;;;;;;;;;;4986365;28;20030;-67
2021/06/10 02:58:50;;;;;;;17.63;9.20;;;;;;;;;;4982773;28;20552;-67
2021/06/10 03:01:17;;;;;;;14.82;8.90;;;;;;;;;;4988091;28;20039;-67
2021/06/10 03:03:43;;;;;;;17.25;9.23;;;;;;;;;;4987592;28;20092;-67
2021/06/10 03:06:10;;;;;;;15.93;8.35;;;;;;;;;;4983029;28;20506;-67
2021/06/10 03:08:37;;;;;;;15.35;8.70;;;;;;;;;;4984629;28;20018;-67
2021/06/10 03:11:04;;;;;;;13.77;7.88;;;;;;;;;;4988031;28;20079;-67
2021/06/10 03:13:31;;;;;;;11.85;6.97;;;;;;;;;;4989308;28;20060;-68
2021/06/10 03:15:58;;;;;;;13.27;7.85;;;;;;;;;;4989705;28;20067;-67
2021/06/10 03:18:24;;;;;;;13.18;7.85;;;;;;;;;;4982700;28;20091;-68
2021/06/10 03:20:50;;;;;;;16.67;8.75;;;;;;;;;;4987398;28;20042;-67
2021/06/10 03:23:17;;;;;;;10.98;7.75;;;;;;;;;;4987895;28;20022;-67
2021/06/10 03:25:43;;;;;;;13.27;7.75;;;;;;;;;;4986171;28;20033;-67
2021/06/10 03:28:09;;;;;;;17.05;9.10;;;;;;;;;;4985907;28;20035;-67
2021/06/10 03:30:36;;;;;;;16.80;8.40;;;;;;;;;;4984290;28;20038;-67
2021/06/10 03:33:04;;;;;;;16.58;8.65;;;;;;;;;;4987802;28;20023;-67
2021/06/10 03:35:30;;;;;;;13.57;7.93;;;;;;;;;;4987777;28;20049;-67
2021/06/10 03:37:56;;;;;;;12.80;8.73;;;;;;;;;;4986753;28;20061;-67
2021/06/10 03:40:23;;;;;;;18.23;9.10;;;;;;;;;;4988511;28;20406;-68
2021/06/10 03:42:49;;;;;;;14.48;8.35;;;;;;;;;;4987140;28;20023;-67
2021/06/10 03:45:16;;;;;;;13.93;8.10;;;;;;;;;;4992902;28;20030;-67
2021/06/10 03:47:44;;;;;;;15.18;9.05;;;;;;;;;;4985833;28;20030;-67
2021/06/10 03:50:10;;;;;;;16.00;9.68;;;;;;;;;;5001013;28;20055;-67
2021/06/10 03:52:36;;;;;;;15.88;10.85;;;;;;;;;;4984481;28;20038;-67
2021/06/10 03:55:07;;;;;;;14.57;9.40;;;;;;;;;;4989864;28;20030;-67
2021/06/10 03:57:33;;;;;;;15.07;9.95;;;;;;;;;;4985486;28;20034;-67
2021/06/10 04:00:00;;;;;;;18.10;10.75;;;;;;;;;;4987659;28;20026;-67
2021/06/10 04:02:26;;;;;;;19.67;11.27;;;;;;;;;;4986827;28;20034;-67
2021/06/10 04:04:54;;;;;;;19.25;11.10;;;;;;;;;;4986921;28;20030;-67
2021/06/10 04:07:21;;;;;;;18.92;11.65;;;;;;;;;;4983141;28;20044;-67
2021/06/10 04:09:47;;;;;;;22.95;11.10;;;;;;;;;;4989143;28;20493;-67
2021/06/10 04:12:13;;;;;;;19.75;11.82;;;;;;;;;;4985597;28;20042;-68
2021/06/10 04:14:39;;;;;;;21.73;12.20;;;;;;;;;;4990148;28;20030;-67
2021/06/10 04:17:05;;;;;;;22.67;14.20;;;;;;;;;;4983637;28;20492;-67
2021/06/10 04:19:31;;;;;;;23.02;14.43;;;;;;;;;;4985988;28;20030;-67
2021/06/10 04:21:57;;;;;;;22.17;12.93;;;;;;;;;;4981748;28;20572;-67
2021/06/10 04:24:23;;;;;;;21.75;13.27;;;;;;;;;;4987598;28;20127;-68
2021/06/10 04:26:49;;;;;;;25.83;13.80;;;;;;;;;;4985246;28;20395;-67
2021/06/10 04:29:15;;;;;;;22.42;14.68;;;;;;;;;;4985463;28;20058;-67
2021/06/10 04:31:42;;;;;;;25.52;15.57;;;;;;;;;;4986343;28;20030;-67
2021/06/10 04:34:08;;;;;;;26.77;16.33;;;;;;;;;;4989911;28;20019;-67
2021/06/10 04:36:34;;;;;;;26.73;15.82;;;;;;;;;;4992845;28;20030;-68
2021/06/10 04:39:00;;;;;;;27.92;15.52;;;;;;;;;;4990191;28;20030;-68
2021/06/10 04:41:26;;;;;;;26.98;17.05;;;;;;;;;;4992715;28;20037;-67
2021/06/10 04:43:52;;;;;;;30.02;16.45;;;;;;;;;;4988039;28;20030;-67
2021/06/10 04:46:18;;;;;;;27.65;17.13;;;;;;;;;;4986198;28;20022;-68
2021/06/10 04:48:44;;;;;;;25.38;15.15;;;;;;;;;;4987113;28;20033;-68
2021/06/10 04:51:10;;;;;;;32.15;18.05;;;;;;;;;;4989721;28;20023;-67
2021/06/10 04:53:36;;;;;;;33.15;19.02;;;;;;;;;;4987868;28;20030;-68
2021/06/10 04:56:03;;;;;;;30.73;18.75;;;;;;;;;;4986998;28;20080;-68
2021/06/10 04:58:29;;;;;;;31.10;17.92;;;;;;;;;;4986732;28;20163;-68
2021/06/10 05:00:55;;;;;;;31.13;19.00;;;;;;;;;;4987761;28;20497;-68
2021/06/10 05:03:22;;;;;;;30.17;18.92;;;;;;;;;;4985102;28;20420;-68
2021/06/10 05:05:48;;;;;;;34.95;20.63;;;;;;;;;;5069253;28;20028;-68
2021/06/10 05:08:15;;;;;;;32.78;21.17;;;;;;;;;;4987037;28;20109;-68
2021/06/10 05:10:42;;;;;;;33.65;21.40;;;;;;;;;;4987409;28;20038;-67
2021/06/10 05:13:08;;;;;;;33.78;20.95;;;;;;;;;;4987795;28;20753;-68
2021/06/10 05:15:34;;;;;;;38.80;22.48;;;;;;;;;;4988106;28;20031;-68
2021/06/10 05:18:00;;;;;;;34.42;21.50;;;;;;;;;;4985402;28;20069;-68
2021/06/10 05:20:26;;;;;;;38.65;23.55;;;;;;;;;;4988588;28;20026;-67
2021/06/10 05:22:52;;;;;;;41.22;23.30;;;;;;;;;;4987072;28;20026;-67
2021/06/10 05:25:18;;;;;;;37.83;23.42;;;;;;;;;;4986170;28;20022;-68
2021/06/10 05:27:44;;;;;;;44.25;24.55;;;;;;;;;;4985157;28;20093;-68
2021/06/10 05:30:10;;;;;;;40.72;23.52;;;;;;;;;;4984836;28;20030;-68
2021/06/10 05:32:36;;;;;;;37.50;22.70;;;;;;;;;;4983775;28;20413;-68
2021/06/10 05:35:03;;;;;;;34.45;22.52;;;;;;;;;;4977389;28;20026;-68
2021/06/10 05:37:29;;;;;;;45.00;23.83;;;;;;;;;;4975756;28;20030;-68
2021/06/10 05:39:55;;;;;;;37.70;24.38;;;;;;;;;;4976049;28;20026;-68
2021/06/10 05:42:21;;;;;;;48.60;26.23;;;;;;;;;;4979996;28;20497;-68
2021/06/10 05:44:47;;;;;;;42.17;24.70;;;;;;;;;;4976720;28;20088;-68
2021/06/10 05:47:13;;;;;;;45.47;27.10;;;;;;;;;;4979090;28;20115;-68
2021/06/10 05:49:40;;;;;;;45.78;29.70;;;;;;;;;;4989518;28;20088;-70
2021/06/10 05:52:07;;;;;;;45.45;26.30;;;;;;;;;;5004032;28;20124;-69
2021/06/10 05:54:33;;;;;;;50.35;29.13;;;;;;;;;;4981415;28;20771;-67
2021/06/10 05:56:59;;;;;;;49.15;26.35;;;;;;;;;;4986694;28;20077;-68
2021/06/10 05:59:28;;;;;;;47.90;24.88;;;;;;;;;;4980767;28;20035;-68
2021/06/10 06:01:54;;;;;;;46.22;24.55;;;;;;;;;;4971911;28;20136;-68
2021/06/10 06:04:20;;;;;;;43.72;21.80;;;;;;;;;;4985223;28;20072;-68
2021/06/10 06:06:47;;;;;;;38.45;19.67;;;;;;;;;;4978061;28;20309;-68
2021/06/10 06:09:14;;;;;;;36.35;18.15;;;;;;;;;;4987745;28;20458;-68
2021/06/10 06:11:41;;;;;;;34.00;18.60;;;;;;;;;;4981458;28;20114;-68
2021/06/10 06:14:08;;;;;;;32.53;17.13;;;;;;;;;;5068560;28;20024;-69
2021/06/10 06:16:38;;;;;;;27.65;13.98;;;;;;;;;;5049083;28;20342;-71
2021/06/10 06:19:07;;;;;;;25.10;14.30;;;;;;;;;;4981658;28;20034;-71
2021/06/10 06:21:34;;;;;;;27.90;15.38;;;;;;;;;;4984204;28;20028;-69
2021/06/10 06:24:00;;;;;;;26.58;15.77;;;;;;;;;;4981356;28;20034;-69
2021/06/10 06:26:27;;;;;;;29.13;14.80;;;;;;;;;;4980870;28;20026;-69
2021/06/10 06:28:54;;;;;;;29.17;16.63;;;;;;;;;;4979880;28;20046;-70
2021/06/10 06:31:21;;;;;;;23.83;14.73;;;;;;;;;;4981735;28;20029;-69
2021/06/10 06:33:47;;;;;;;24.48;14.70;;;;;;;;;;4981409;28;20166;-70
2021/06/10 06:36:13;;;;;;;29.80;15.05;;;;;;;;;;4981080;28;20034;-69
2021/06/10 06:38:39;;;;;;;25.15;14.85;;;;;;;;;;4978944;28;20034;-71
2021/06/10 06:41:05;;;;;;;28.55;15.18;;;;;;;;;;4982057;28;20034;-69
2021/06/10 06:43:32;;;;;;;28.67;15.32;;;;;;;;;;4979800;28;20566;-70
2021/06/10 06:45:58;;;;;;;28.63;14.88;;;;;;;;;;4984183;28;20079;-68
2021/06/10 06:48:24;;;;;;;25.55;15.25;;;;;;;;;;4980070;28;20110;-68
2021/06/10 06:50:50;;;;;;;28.55;15.40;;;;;;;;;;4992868;28;20033;-68
2021/06/10 06:53:16;;;;;;;33.78;15.52;;;;;;;;;;4985364;28;20030;-68
2021/06/10 06:55:44;;;;;;;28.40;14.27;;;;;;;;;;4987644;28;20026;-68
2021/06/10 06:58:10;;;;;;;27.60;14.00;;;;;;;;;;4979580;28;20030;-69
2021/06/10 07:00:36;;;;;;;29.98;14.20;;;;;;;;;;4976848;28;20057;-68
2021/06/10 07:03:02;;;;;;;26.15;14.90;;;;;;;;;;4982546;28;20111;-67
2021/06/10 07:05:28;;;;;;;23.95;13.35;;;;;;;;;;4981105;28;20034;-68
2021/06/10 07:07:54;;;;;;;22.70;13.98;;;;;;;;;;4975755;28;20114;-68
2021/06/10 07:10:20;;;;;;;23.95;14.63;;;;;;;;;;4985780;28;20439;-66
2021/06/10 07:12:46;;;;;;;20.50;13.02;;;;;;;;;;4987657;28;20050;-69
2021/06/10 07:15:13;;;;;;;24.30;13.73;;;;;;;;;;4981868;28;20050;-69
2021/06/10 07:17:39;;;;;;;20.73;12.68;;;;;;;;;;4978286;28;20566;-68
2021/06/10 07:20:05;;;;;;;22.83;12.73;;;;;;;;;;4982618;28;20149;-68
2021/06/10 07:22:32;;;;;;;18.00;11.27;;;;;;;;;;4982281;28;20099;-69
2021/06/10 07:24:58;;;;;;;20.45;12.38;;;;;;;;;;4982286;28;20048;-69
2021/06/10 07:27:25;;;;;;;18.70;11.52;;;;;;;;;;4979773;28;20034;-68
2021/06/10 07:29:53;;;;;;;16.02;10.75;;;;;;;;;;4976779;28;20037;-68
2021/06/10 07:32:19;;;;;;;17.42;12.07;;;;;;;;;;4976803;28;20108;-68
2021/06/10 07:34:45;;;;;;;17.58;11.45;;;;;;;;;;4982189;28;20019;-67
2021/06/10 07:37:11;;;;;;;18.08;12.27;;;;;;;;;;4978130;28;20493;-67
2021/06/10 07:39:38;;;;;;;18.40;11.25;;;;;;;;;;4979920;28;20607;-68
2021/06/10 07:42:04;;;;;;;16.08;10.60;;;;;;;;;;4982175;28;20550;-68
2021/06/10 07:44:30;;;;;;;17.60;11.88;;;;;;;;;;4979013;28;20034;-69
2021/06/10 07:46:56;;;;;;;14.85;9.32;;;;;;;;;;4974872;28;20045;-68
2021/06/10 07:49:22;;;;;;;16.08;10.23;;;;;;;;;;4984820;28;20038;-69
2021/06/10 07:51:48;;;;;;;15.63;10.55;;;;;;;;;;4979300;28;20039;-67
2021/06/10 07:54:14;;;;;;;14.93;9.70;;;;;;;;;;4983142;28;20564;-67
2021/06/10 07:56:41;;;;;;;17.65;10.13;;;;;;;;;;4981611;28;20094;-68
2021/06/10 07:59:07;;;;;;;18.52;10.82;;;;;;;;;;4976934;28;20035;-68
2021/06/10 08:01:33;;;;;;;17.98;11.35;;;;;;;;;;4985073;28;20049;-69
2021/06/10 08:03:59;;;;;;;16.00;9.90;;;;;;;;;;4988082;28;20486;-68
2021/06/10 08:06:25;;;;;;;16.48;10.48;;;;;;;;;;4985630;28;20481;-68
2021/06/10 08:08:51;;;;;;;18.10;11.70;;;;;;;;;;4989183;28;20035;-67
2021/06/10 08:11:18;;;;;;;18.98;11.38;;;;;;;;;;4989014;28;20480;-68
2021/06/10 08:13:44;;;;;;;15.18;9.98;;;;;;;;;;4987957;28;20603;-67
2021/06/10 08:16:10;;;;;;;17.90;10.02;;;;;;;;;;4984319;28;20030;-68
2021/06/10 08:18:36;;;;;;;17.55;10.15;;;;;;;;;;4987655;28;20044;-69
2021/06/10 08:21:02;;;;;;;18.13;11.20;;;;;;;;;;4984442;28;20034;-67
2021/06/10 08:23:29;;;;;;;17.25;10.98;;;;;;;;;;4985287;28;20018;-68
2021/06/10 08:25:57;;;;;;;19.77;11.68;;;;;;;;;;4982127;28;20062;-68
2021/06/10 08:28:24;;;;;;;17.83;11.52;;;;;;;;;;4980379;28;20036;-67
2021/06/10 08:30:50;;;;;;;18.45;11.32;;;;;;;;;;4981517;28;20531;-67
2021/06/10 08:33:17;;;;;;;16.05;11.50;;;;;;;;;;4977236;28;20489;-68
2021/06/10 08:35:43;;;;;;;17.83;11.85;;;;;;;;;;4980746;28;20555;-68
2021/06/10 08:38:10;;;;;;;16.45;11.15;;;;;;;;;;4978771;28;20030;-67
2021/06/10 08:40:39;;;;;;;16.10;10.95;;;;;;;;;;4982607;28;20057;-67
2021/06/10 08:43:06;;;;;;;18.52;11.63;;;;;;;;;;4983069;28;20160;-66
2021/06/10 08:45:33;;;;;;;18.15;11.20;;;;;;;;;;4980798;28;20030;-67
2021/06/10 08:48:00;;;;;;;15.25;10.45;;;;;;;;;;4977739;28;20034;-68
2021/06/10 08:50:27;;;;;;;17.05;10.82;;;;;;;;;;4979599;28;20520;-67
2021/06/10 08:52:57;;;;;;;16.08;10.70;;;;;;;;;;4982330;28;20030;-69
2021/06/10 08:55:23;;;;;;;18.30;11.55;;;;;;;;;;4980193;28;20030;-66
2021/06/10 08:57:50;;;;;;;15.02;9.57;;;;;;;;;;4979787;28;20021;-68
2021/06/10 09:00:16;;;;;;;14.27;9.43;;;;;;;;;;4981963;28;20109;-67
2021/06/10 09:02:50;;;;;;;15.32;9.63;;;;;;;;;;4983257;28;20035;-67
2021/06/10 09:05:18;;;;;;;17.40;11.38;;;;;;;;;;4981856;28;20034;-67
2021/06/10 09:07:50;;;;;;;18.13;11.57;;;;;;;;;;4976162;28;20367;-67
2021/06/10 09:10:20;;;;;;;17.55;11.73;;;;;;;;;;4981201;28;20022;-67
2021/06/10 09:12:49;;;;;;;14.52;9.82;;;;;;;;;;4985850;28;20488;-67
2021/06/10 09:15:17;;;;;;;16.95;12.05;;;;;;;;;;4982287;28;20027;-68
2021/06/10 09:17:43;;;;;;;16.33;10.65;;;;;;;;;;4975089;28;20350;-67
2021/06/10 09:20:18;;;;;;;16.25;10.45;;;;;;;;;;4977906;28;20092;-67
2021/06/10 09:22:44;;;;;;;17.52;11.75;;;;;;;;;;4979368;28;20125;-66
2021/06/10 09:25:12;;;;;;;23.10;13.70;;;;;;;;;;4980149;28;20070;-67
2021/06/10 09:27:52;;;;;;;21.25;14.55;;;;;;;;;;4989608;28;20050;-68
2021/06/10 09:30:49;;;;;;;21.13;13.82;;;;;;;;;;4978515;28;20031;-69
2021/06/10 09:33:17;;;;;;;22.67;15.52;;;;;;;;;;4982942;28;20571;-67
2021/06/10 09:35:44;;;;;;;19.60;13.65;;;;;;;;;;4979895;28;20171;-67
2021/06/10 09:38:16;;;;;;;20.77;13.75;;;;;;;;;;4977896;28;20061;-67
2021/06/10 09:40:42;;;;;;;25.67;17.75;;;;;;;;;;4982311;28;20030;-66
2021/06/10 09:43:10;;;;;;;22.83;15.68;;;;;;;;;;4980524;28;20038;-67
2021/06/10 09:45:37;;;;;;;22.88;16.00;;;;;;;;;;4982205;28;20038;-67
2021/06/10 09:48:05;;;;;;;27.40;17.95;;;;;;;;;;4979610;28;20053;-67
2021/06/10 09:50:43;;;;;;;26.40;16.70;;;;;;;;;;4982282;28;20030;-68
2021/06/10 09:53:15;;;;;;;25.02;16.70;;;;;;;;;;4985385;28;20049;-69
2021/06/10 09:55:51;;;;;;;23.58;15.55;;;;;;;;;;4978877;28;20046;-68
2021/06/10 09:58:17;;;;;;;24.90;15.57;;;;;;;;;;4981682;28;20029;-67
2021/06/10 10:00:48;;;;;;;24.40;16.65;;;;;;;;;;4980519;28;20038;-68
2021/06/10 10:03:40;;;;;;;23.73;15.38;;;;;;;;;;4980717;28;20038;-68
2021/06/10 10:06:08;;;;;;;;;;;;;;;;;;5009377;28;20057;-68
2021/06/10 10:08:35;;;;;;;22.30;14.95;;;;;;;;;;4975069;28;19996;-67
2021/06/10 10:11:02;;;;;;;22.27;16.13;;;;;;;;;;4973765;28;20117;-68
2021/06/10 10:13:29;;;;;;;21.70;14.27;;;;;;;;;;4993496;28;20117;-67
2021/06/10 10:15:59;;;;;;;25.48;16.75;;;;;;;;;;5034260;28;20487;-68
2021/06/10 10:18:25;;;;;;;26.50;14.68;;;;;;;;;;5033189;28;20023;-68
2021/06/10 10:20:51;;;;;;;24.17;17.17;;;;;;;;;;4989505;28;20117;-67
2021/06/10 10:23:18;;;;;;;27.92;17.95;;;;;;;;;;4990784;28;20023;-67
2021/06/10 10:25:44;;;;;;;21.15;15.20;;;;;;;;;;5000623;28;20023;-67
2021/06/10 10:28:11;;;;;;;21.52;14.80;;;;;;;;;;4985477;28;20037;-66
2021/06/10 10:30:38;;;;;;;22.23;15.15;;;;;;;;;;4988202;28;20030;-68
2021/06/10 10:33:14;;;;;;;23.30;16.50;;;;;;;;;;4975256;28;20026;-70
2021/06/10 10:35:47;;;;;;;27.30;17.70;;;;;;;;;;4998200;28;20034;-66
2021/06/10 10:38:15;;;;;;;26.70;19.13;;;;;;;;;;4986929;28;20022;-66
2021/06/10 10:40:50;;;;;;;27.38;17.52;;;;;;;;;;4983983;28;20575;-67
2021/06/10 10:43:16;;;;;;;22.33;15.23;;;;;;;;;;4980848;28;20027;-67
2021/06/10 10:45:46;;;;;;;21.52;16.08;;;;;;;;;;4988078;28;20015;-67
2021/06/10 10:48:14;;;;;;;27.58;17.10;;;;;;;;;;5018794;28;20595;-69
2021/06/10 10:50:45;;;;;;;21.33;13.82;;;;;;;;;;4980659;28;20148;-69
2021/06/10 10:53:18;;;;;;;24.45;18.30;;;;;;;;;;4995746;28;20065;-67
2021/06/10 10:55:44;;;;;;;25.40;17.52;;;;;;;;;;4986290;28;20493;-67
2021/06/10 10:58:19;;;;;;;29.77;19.80;;;;;;;;;;4998665;28;20023;-67
2021/06/10 11:00:52;;;;;;;29.58;18.52;;;;;;;;;;5009090;28;20042;-66
2021/06/10 11:03:25;;;;;;;31.67;19.48;;;;;;;;;;4990627;28;20501;-66
2021/06/10 11:05:51;;;;;;;32.20;20.05;;;;;;;;;;4986616;28;20033;-69
2021/06/10 11:08:17;;;;;;;31.23;21.38;;;;;;;;;;5015385;28;20040;-68
2021/06/10 11:10:50;;;;;;;35.38;21.55;;;;;;;;;;4988208;28;20453;-67
2021/06/10 11:13:17;;;;;;;32.15;21.02;;;;;;;;;;4996105;28;20516;-67
2021/06/10 11:15:43;;;;;;;34.10;20.88;;;;;;;;;;4988236;28;20109;-66
2021/06/10 11:18:09;;;;;;;28.13;19.42;;;;;;;;;;4985613;28;20045;-66
2021/06/10 11:20:38;;;;;;;35.40;22.05;;;;;;;;;;5034608;28;20024;-66
2021/06/10 11:23:17;;;;;;;30.98;20.02;;;;;;;;;;5013196;28;20030;-66
2021/06/10 11:25:48;;;;;;;26.92;18.15;;;;;;;;;;4988222;28;20026;-65
2021/06/10 11:28:16;;;;;;;28.67;18.73;;;;;;;;;;4985430;28;20018;-66
2021/06/10 11:30:42;;;;;;;29.90;18.60;;;;;;;;;;4987304;28;20092;-67
2021/06/10 11:33:08;;;;;;;28.67;19.60;;;;;;;;;;4986892;28;20031;-66
2021/06/10 11:35:39;;;;;;;29.02;18.52;;;;;;;;;;5000235;28;20026;-66
2021/06/10 11:38:11;;;;;;;28.88;18.40;;;;;;;;;;4978169;28;20030;-67
2021/06/10 11:40:37;;;;;;;29.15;17.73;;;;;;;;;;4984869;28;20524;-66
2021/06/10 11:43:07;;;;;;;27.63;18.05;;;;;;;;;;4987655;28;20026;-67
2021/06/10 11:45:33;;;;;;;24.85;14.82;;;;;;;;;;4987178;28;20097;-66
2021/06/10 11:48:00;;;;;;;22.95;16.40;;;;;;;;;;4990456;28;20073;-66
2021/06/10 11:50:30;;;;;;;20.58;14.27;;;;;;;;;;4988949;28;20513;-68
2021/06/10 11:53:01;;;;;;;18.75;12.88;;;;;;;;;;4986574;28;20031;-66
2021/06/10 11:55:29;;;;;;;25.77;16.73;;;;;;;;;;4980874;28;20522;-66
2021/06/10 11:57:56;;;;;;;19.90;13.73;;;;;;;;;;4983914;28;20520;-66
2021/06/10 12:00:26;;;;;;;19.23;12.93;;;;;;;;;;4989029;28;20042;-66
2021/06/10 12:02:59;;;;;;;16.98;11.48;;;;;;;;;;4990504;28;20029;-65
2021/06/10 12:05:26;;;;;;;17.30;9.48;;;;;;;;;;5019835;28;20024;-66
2021/06/10 12:08:06;;;;;;;17.10;10.82;;;;;;;;;;5023782;28;20042;-66
2021/06/10 12:10:32;;;;;;;14.93;9.75;;;;;;;;;;4987447;28;20022;-65
2021/06/10 12:12:58;;;;;;;16.70;10.98;;;;;;;;;;4991197;28;20641;-66
2021/06/10 12:15:25;;;;;;;14.52;9.88;;;;;;;;;;5037632;28;20030;-66
2021/06/10 12:17:55;;;;;;;13.25;9.30;;;;;;;;;;4993941;28;20033;-64
2021/06/10 12:20:23;;;;;;;13.75;8.00;;;;;;;;;;5071391;28;20031;-66
2021/06/10 12:22:50;;;;;;;12.73;7.65;;;;;;;;;;5029496;28;20022;-65
2021/06/10 12:25:17;;;;;;;12.93;9.32;;;;;;;;;;5029748;28;20014;-66
2021/06/10 12:27:43;;;;;;;10.73;7.82;;;;;;;;;;5033418;28;20030;-65
2021/06/10 12:30:26;;;;;;;12.80;9.50;;;;;;;;;;4996399;28;20107;-65
2021/06/10 12:32:53;;;;;;;11.35;8.10;;;;;;;;;;5012214;28;20079;-65
2021/06/10 12:35:22;;;;;;;12.95;8.90;;;;;;;;;;4990650;28;20041;-65
2021/06/10 12:37:53;;;;;;;16.50;10.50;;;;;;;;;;4990976;28;20033;-64
2021/06/10 12:40:19;;;;;;;12.57;9.25;;;;;;;;;;5000310;28;20026;-66
2021/06/10 12:43:04;;;;;;;16.10;11.40;;;;;;;;;;4988079;28;20031;-65
2021/06/10 12:45:30;;;;;;;14.95;8.82;;;;;;;;;;4998821;28;20037;-64
2021/06/10 12:47:56;;;;;;;13.00;8.45;;;;;;;;;;4982296;28;20031;-66
2021/06/10 12:50:22;;;;;;;13.00;7.18;;;;;;;;;;4995787;28;20026;-66
2021/06/10 12:52:48;;;;;;;10.02;6.38;;;;;;;;;;4989146;28;20022;-64
2021/06/10 12:55:28;;;;;;;10.32;7.38;;;;;;;;;;4985843;28;20022;-65
2021/06/10 12:57:58;;;;;;;11.10;6.68;;;;;;;;;;4983965;28;20033;-65
2021/06/10 13:00:32;;;;;;;10.43;6.93;;;;;;;;;;5018499;28;20036;-66
2021/06/10 13:03:08;;;;;;;13.93;8.20;;;;;;;;;;5002101;28;20073;-65
2021/06/10 13:05:34;;;;;;;13.35;7.75;;;;;;;;;;4980810;28;20030;-65
2021/06/10 13:08:00;;;;;;;12.88;8.45;;;;;;;;;;5027473;28;20038;-65
2021/06/10 13:10:34;;;;;;;12.85;8.68;;;;;;;;;;5007244;28;20523;-66
2021/06/10 13:13:00;;;;;;;17.05;11.40;;;;;;;;;;4995880;28;20679;-65
2021/06/10 13:15:26;;;;;;;15.85;9.38;;;;;;;;;;5018089;28;20030;-65
2021/06/10 13:17:52;;;;;;;14.70;8.55;;;;;;;;;;4983638;28;20038;-66
2021/06/10 13:20:37;;;;;;;12.38;7.55;;;;;;;;;;4987070;28;20023;-66
2021/06/10 13:23:03;;;;;;;10.30;7.30;;;;;;;;;;4982748;28;20555;-65
2021/06/10 13:25:29;;;;;;;12.63;7.85;;;;;;;;;;4989771;28;20021;-65
2021/06/10 13:28:08;;;;;;;10.73;7.18;;;;;;;;;;5003512;28;20026;-65
2021/06/10 13:30:34;;;;;;;12.45;8.75;;;;;;;;;;4985823;28;20486;-65
2021/06/10 13:33:00;;;;;;;11.00;8.23;;;;;;;;;;4985797;28;20038;-66
2021/06/10 13:35:27;;;;;;;12.00;7.47;;;;;;;;;;4984842;28;20030;-65
2021/06/10 13:37:53;;;;;;;12.10;8.27;;;;;;;;;;4983827;28;20031;-65
2021/06/10 13:40:19;;;;;;;10.70;6.75;;;;;;;;;;4987305;28;20127;-66
2021/06/10 13:42:52;;;;;;;13.95;8.18;;;;;;;;;;4983081;28;20485;-65
2021/06/10 13:45:18;;;;;;;10.82;7.20;;;;;;;;;;4983522;28;20022;-65
2021/06/10 13:47:44;;;;;;;13.40;8.52;;;;;;;;;;4978766;28;20084;-66
2021/06/10 13:50:13;;;;;;;10.35;7.20;;;;;;;;;;4986045;28;20102;-65
2021/06/10 13:52:39;;;;;;;12.73;7.50;;;;;;;;;;4986408;28;20029;-65
2021/06/10 13:55:05;;;;;;;11.32;7.97;;;;;;;;;;4978810;28;20079;-68
2021/06/10 13:57:31;;;;;;;12.15;7.85;;;;;;;;;;4976636;28;20030;-65
2021/06/10 13:59:57;;;;;;;9.02;6.18;;;;;;;;;;4988147;28;20033;-66
2021/06/10 14:02:23;;;;;;;8.55;5.20;;;;;;;;;;4986492;28;21385;-66
2021/06/10 14:04:49;;;;;;;9.60;6.60;;;;;;;;;;4982639;28;20591;-66
2021/06/10 14:07:15;;;;;;;12.48;6.75;;;;;;;;;;4980215;28;20026;-66
2021/06/10 14:09:43;;;;;;;9.60;5.78;;;;;;;;;;4980999;28;20034;-65
2021/06/10 14:12:09;;;;;;;9.70;6.50;;;;;;;;;;4997581;28;20517;-65
2021/06/10 14:14:35;;;;;;;12.95;7.55;;;;;;;;;;4992858;28;20035;-66
2021/06/10 14:17:02;;;;;;;10.50;7.05;;;;;;;;;;4980149;28;20034;-65
2021/06/10 14:19:28;;;;;;;8.80;6.78;;;;;;;;;;4980112;28;20255;-66
2021/06/10 14:21:54;;;;;;;12.05;7.13;;;;;;;;;;4999737;28;20042;-66
2021/06/10 14:24:20;;;;;;;10.10;6.55;;;;;;;;;;4983858;28;20058;-66
2021/06/10 14:26:46;;;;;;;10.52;6.85;;;;;;;;;;4978718;28;20026;-66